createdAt,value
2023-06-18T00:01:07.481Z,16.30
2023-06-18T00:03:34.287Z,16.30
2023-06-18T00:06:01.170Z,16.30
2023-06-18T00:08:27.985Z,16.20
2023-06-18T00:10:54.726Z,16.20
2023-06-18T00:13:21.596Z,16.20
2023-06-18T00:15:48.432Z,16.20
2023-06-18T00:18:15.209Z,16.20
2023-06-18T00:20:41.969Z,16.10
2023-06-18T00:23:08.829Z,16.10
2023-06-18T00:25:35.720Z,16.10
2023-06-18T00:28:02.430Z,16.10
2023-06-18T00:30:29.176Z,16.00
2023-06-18T00:32:56.115Z,16.00
2023-06-18T00:35:23.029Z,16.00
2023-06-18T00:37:49.770Z,16.00
2023-06-18T00:40:16.713Z,16.00
2023-06-18T00:42:43.654Z,16.00
2023-06-18T00:45:10.951Z,16.00
2023-06-18T00:47:37.989Z,16.00
2023-06-18T00:50:05.404Z,15.90
2023-06-18T00:52:35.157Z,15.90
2023-06-18T00:55:03.125Z,15.90
2023-06-18T00:57:30.943Z,15.90
2023-06-18T00:59:58.168Z,15.90
2023-06-18T01:02:25.342Z,15.90
2023-06-18T01:04:57.006Z,15.90
2023-06-18T01:07:26.518Z,15.80
2023-06-18T01:09:58.931Z,15.70
2023-06-18T01:12:25.728Z,15.70
2023-06-18T01:14:52.527Z,15.70
2023-06-18T01:17:22.887Z,15.70
2023-06-18T01:19:59.929Z,15.70
2023-06-18T01:22:41.761Z,15.70
2023-06-18T01:25:09.626Z,15.70
2023-06-18T01:27:40.878Z,15.70
2023-06-18T01:30:12.206Z,15.70
2023-06-18T01:32:39.915Z,15.70
2023-06-18T01:35:08.674Z,15.70
2023-06-18T01:37:35.491Z,15.70
2023-06-18T01:40:12.459Z,15.70
2023-06-18T01:42:44.061Z,15.70
2023-06-18T01:45:19.970Z,15.60
2023-06-18T01:47:48.272Z,15.60
2023-06-18T01:50:17.384Z,15.50
2023-06-18T01:52:45.781Z,15.50
2023-06-18T01:55:14.950Z,15.60
2023-06-18T01:57:42.008Z,15.60
2023-06-18T02:00:09.363Z,15.60
2023-06-18T02:02:36.285Z,15.60
2023-06-18T02:05:03.128Z,15.50
2023-06-18T02:07:30.076Z,15.50
2023-06-18T02:09:56.809Z,15.50
2023-06-18T02:12:23.552Z,15.50
2023-06-18T02:14:50.353Z,15.50
2023-06-18T02:17:17.500Z,15.50
2023-06-18T02:19:44.234Z,15.50
2023-06-18T02:22:10.948Z,15.40
2023-06-18T02:24:37.775Z,15.40
2023-06-18T02:27:04.920Z,15.40
2023-06-18T02:29:31.828Z,15.40
2023-06-18T02:31:58.611Z,15.30
2023-06-18T02:34:26.010Z,15.30
2023-06-18T02:37:02.891Z,15.30
2023-06-18T02:39:29.761Z,15.30
2023-06-18T02:41:56.644Z,15.30
2023-06-18T02:44:23.352Z,15.30
2023-06-18T02:46:50.154Z,15.30
2023-06-18T02:49:17.017Z,15.30
2023-06-18T02:51:43.754Z,15.30
2023-06-18T02:54:10.494Z,15.30
2023-06-18T02:56:37.523Z,15.30
2023-06-18T02:59:04.257Z,15.30
2023-06-18T03:01:31.110Z,15.30
2023-06-18T03:03:57.806Z,15.30
2023-06-18T03:06:24.667Z,15.30
2023-06-18T03:08:51.595Z,15.30
2023-06-18T03:11:18.392Z,15.30
2023-06-18T03:13:45.205Z,15.30
2023-06-18T03:16:11.977Z,15.30
2023-06-18T03:18:38.739Z,15.30
2023-06-18T03:21:05.525Z,15.30
2023-06-18T03:23:32.272Z,15.30
2023-06-18T03:25:59.033Z,15.30
2023-06-18T03:28:25.786Z,15.30
2023-06-18T03:30:52.483Z,15.30
2023-06-18T03:33:19.221Z,15.30
2023-06-18T03:35:46.042Z,15.30
2023-06-18T03:38:12.759Z,15.30
2023-06-18T03:40:39.448Z,15.30
2023-06-18T03:43:06.167Z,15.30
2023-06-18T03:45:32.910Z,15.30
2023-06-18T03:47:59.876Z,15.30
2023-06-18T03:50:26.644Z,15.30
2023-06-18T03:52:53.378Z,15.30
2023-06-18T03:55:20.161Z,15.40
2023-06-18T03:57:47.105Z,15.40
2023-06-18T04:00:13.934Z,15.40
2023-06-18T04:02:40.735Z,15.50
2023-06-18T04:05:07.946Z,15.40
2023-06-18T04:07:34.611Z,15.50
2023-06-18T04:10:01.321Z,15.50
2023-06-18T04:12:28.020Z,15.50
2023-06-18T04:14:54.726Z,15.60
2023-06-18T04:17:21.406Z,15.60
2023-06-18T04:19:48.169Z,15.70
2023-06-18T04:22:14.897Z,15.70
2023-06-18T04:24:41.586Z,15.60
2023-06-18T04:27:08.315Z,15.70
2023-06-18T04:29:35.182Z,15.70
2023-06-18T04:32:01.888Z,15.80
2023-06-18T04:34:28.614Z,15.80
2023-06-18T04:36:55.288Z,15.90
2023-06-18T04:39:22.118Z,15.90
2023-06-18T04:41:48.850Z,16.00
2023-06-18T04:44:15.596Z,16.00
2023-06-18T04:46:42.448Z,16.00
2023-06-18T04:49:09.421Z,16.10
2023-06-18T04:51:36.224Z,16.10
2023-06-18T04:54:02.990Z,16.20
2023-06-18T04:56:29.755Z,16.20
2023-06-18T04:58:56.497Z,16.20
2023-06-18T05:01:23.190Z,16.20
2023-06-18T05:03:50.044Z,16.20
2023-06-18T05:06:16.913Z,16.30
2023-06-18T05:08:43.764Z,16.30
2023-06-18T05:11:11.010Z,16.30
2023-06-18T05:13:37.732Z,16.40
2023-06-18T05:16:04.677Z,16.40
2023-06-18T05:18:31.428Z,16.50
2023-06-18T05:20:58.205Z,16.50
2023-06-18T05:23:24.916Z,16.50
2023-06-18T05:25:51.699Z,16.60
2023-06-18T05:28:18.458Z,16.70
2023-06-18T05:30:45.191Z,16.60
2023-06-18T05:33:12.015Z,16.70
2023-06-18T05:35:38.744Z,16.70
2023-06-18T05:38:05.778Z,16.80
2023-06-18T05:40:32.521Z,16.80
2023-06-18T05:42:59.229Z,16.80
2023-06-18T05:45:26.010Z,16.80
2023-06-18T05:47:52.826Z,16.80
2023-06-18T05:50:19.969Z,16.80
2023-06-18T05:52:46.927Z,16.90
2023-06-18T05:55:13.664Z,17.00
2023-06-18T05:57:40.351Z,17.10
2023-06-18T06:00:07.765Z,17.10
2023-06-18T06:02:34.557Z,17.10
2023-06-18T06:05:01.416Z,17.10
2023-06-18T06:07:28.105Z,17.20
2023-06-18T06:09:55.058Z,17.20
2023-06-18T06:12:22.534Z,17.30
2023-06-18T06:14:49.500Z,17.40
2023-06-18T06:17:16.280Z,17.40
2023-06-18T06:19:43.103Z,17.40
2023-06-18T06:22:10.302Z,17.50
2023-06-18T06:24:37.102Z,17.60
2023-06-18T06:27:04.391Z,17.60
2023-06-18T06:29:32.231Z,17.60
2023-06-18T06:31:59.396Z,17.60
2023-06-18T06:34:26.114Z,17.60
2023-06-18T06:36:52.982Z,17.70
2023-06-18T06:39:19.740Z,17.70
2023-06-18T06:41:46.542Z,17.80
2023-06-18T06:44:13.812Z,17.80
2023-06-18T06:46:40.535Z,17.80
2023-06-18T06:49:07.340Z,17.90
2023-06-18T06:51:38.200Z,17.90
2023-06-18T06:54:05.738Z,18.00
2023-06-18T06:56:32.893Z,18.00
2023-06-18T06:58:59.774Z,18.00
2023-06-18T07:01:26.644Z,18.10
2023-06-18T07:03:53.415Z,18.10
2023-06-18T07:06:20.393Z,18.20
2023-06-18T07:08:47.135Z,18.20
2023-06-18T07:11:13.865Z,18.30
2023-06-18T07:13:40.657Z,18.30
2023-06-18T07:16:07.411Z,18.30
2023-06-18T07:18:34.124Z,18.30
2023-06-18T07:21:01.265Z,18.30
2023-06-18T07:23:28.010Z,18.40
2023-06-18T07:25:54.798Z,18.40
2023-06-18T07:28:21.567Z,18.40
2023-06-18T07:30:48.334Z,18.40
2023-06-18T07:33:15.061Z,18.50
2023-06-18T07:35:41.829Z,18.50
2023-06-18T07:38:08.644Z,18.50
2023-06-18T07:40:38.491Z,18.50
2023-06-18T07:43:05.927Z,18.60
2023-06-18T07:45:32.797Z,18.60
2023-06-18T07:47:59.620Z,18.70
2023-06-18T07:50:26.554Z,18.80
2023-06-18T07:52:53.382Z,18.80
2023-06-18T07:55:20.104Z,18.80
2023-06-18T07:57:46.917Z,18.80
2023-06-18T08:00:14.070Z,18.90
2023-06-18T08:02:40.898Z,18.90
2023-06-18T08:05:07.976Z,19.00
2023-06-18T08:07:34.679Z,19.00
2023-06-18T08:10:01.364Z,19.10
2023-06-18T08:12:28.048Z,19.10
2023-06-18T08:14:54.786Z,19.10
2023-06-18T08:17:21.456Z,19.20
2023-06-18T08:19:48.210Z,19.30
2023-06-18T08:22:18.465Z,19.30
2023-06-18T08:24:46.011Z,19.40
2023-06-18T08:27:12.962Z,19.40
2023-06-18T08:29:40.000Z,19.50
2023-06-18T08:32:07.362Z,19.50
2023-06-18T08:34:35.151Z,19.50
2023-06-18T08:37:02.053Z,19.60
2023-06-18T08:39:28.768Z,19.70
2023-06-18T08:41:56.724Z,19.80
2023-06-18T08:44:23.649Z,19.90
2023-06-18T08:46:52.201Z,20.00
2023-06-18T08:49:21.712Z,20.10
2023-06-18T08:51:52.691Z,20.30
2023-06-18T08:54:20.630Z,20.40
2023-06-18T08:56:51.073Z,20.50
2023-06-18T08:59:20.263Z,20.60
2023-06-18T09:01:48.500Z,20.70
2023-06-18T09:04:16.301Z,20.90
2023-06-18T09:06:43.558Z,21.10
2023-06-18T09:09:10.497Z,21.10
2023-06-18T09:11:37.887Z,21.20
2023-06-18T09:14:05.602Z,21.30
2023-06-18T09:16:32.392Z,21.40
2023-06-18T09:19:03.086Z,21.40
2023-06-18T09:21:41.279Z,21.30
2023-06-18T09:24:20.475Z,21.30
2023-06-18T09:26:49.479Z,21.30
2023-06-18T09:29:16.206Z,21.40
2023-06-18T09:31:45.197Z,21.50
2023-06-18T09:34:13.029Z,21.50
2023-06-18T09:36:44.034Z,21.60
2023-06-18T09:39:21.515Z,21.60
2023-06-18T09:41:50.341Z,21.80
2023-06-18T09:44:18.902Z,21.80
2023-06-18T09:46:47.358Z,21.80
2023-06-18T09:49:16.180Z,21.80
2023-06-18T09:51:43.616Z,21.70
2023-06-18T09:54:10.639Z,21.70
2023-06-18T09:56:38.797Z,21.80
2023-06-18T09:59:05.962Z,21.80
2023-06-18T10:01:53.585Z,21.80
2023-06-18T10:04:20.396Z,21.90
2023-06-18T10:07:07.288Z,22.00
2023-06-18T10:09:37.250Z,22.10
2023-06-18T10:12:05.953Z,22.10
2023-06-18T10:14:33.581Z,22.00
2023-06-18T10:17:18.632Z,22.00
2023-06-18T10:19:58.524Z,22.00
2023-06-18T10:22:28.963Z,22.00
2023-06-18T10:25:01.786Z,22.10
2023-06-18T10:27:29.582Z,22.10
2023-06-18T10:29:59.796Z,22.10
2023-06-18T10:32:27.845Z,22.20
2023-06-18T10:34:58.544Z,22.10
2023-06-18T10:37:31.625Z,22.10
2023-06-18T10:39:58.918Z,22.10
2023-06-18T10:42:25.695Z,22.10
2023-06-18T10:44:56.630Z,22.10
2023-06-18T10:47:31.235Z,22.10
2023-06-18T10:50:18.523Z,22.20
2023-06-18T10:52:50.238Z,22.20
2023-06-18T10:55:19.814Z,22.30
2023-06-18T10:57:51.499Z,22.40
2023-06-18T11:00:22.149Z,22.40
2023-06-18T11:02:57.526Z,22.40
2023-06-18T11:05:33.520Z,22.40
2023-06-18T11:08:01.176Z,22.30
2023-06-18T11:10:43.050Z,22.40
2023-06-18T11:13:11.701Z,22.60
2023-06-18T11:15:53.929Z,22.70
2023-06-18T11:18:21.354Z,23.00
2023-06-18T11:20:48.570Z,23.10
2023-06-18T11:23:16.451Z,23.20
2023-06-18T11:25:44.005Z,23.40
2023-06-18T11:28:10.960Z,23.60
2023-06-18T11:30:37.867Z,23.80
2023-06-18T11:33:04.738Z,23.90
2023-06-18T11:35:31.645Z,24.10
2023-06-18T11:37:58.550Z,24.30
2023-06-18T11:40:25.855Z,24.40
2023-06-18T11:42:54.016Z,24.40
2023-06-18T11:45:22.731Z,24.50
2023-06-18T11:47:51.866Z,24.60
2023-06-18T11:50:20.595Z,24.80
2023-06-18T11:52:47.671Z,25.00
2023-06-18T11:55:14.750Z,25.10
2023-06-18T11:57:41.652Z,25.40
2023-06-18T12:00:09.274Z,25.70
2023-06-18T12:02:38.655Z,25.90
2023-06-18T12:05:06.087Z,26.30
2023-06-18T12:07:33.418Z,26.60
2023-06-18T12:10:09.974Z,26.90
2023-06-18T12:12:52.618Z,27.20
2023-06-18T12:15:26.630Z,27.20
2023-06-18T12:18:20.121Z,27.20
2023-06-18T12:20:47.166Z,27.10
2023-06-18T12:23:14.220Z,27.20
2023-06-18T12:25:41.276Z,27.20
2023-06-18T12:28:08.374Z,27.30
2023-06-18T12:30:39.643Z,27.60
2023-06-18T12:33:11.643Z,27.90
2023-06-18T12:35:39.626Z,28.00
2023-06-18T12:38:08.866Z,28.30
2023-06-18T12:40:49.301Z,28.50
2023-06-18T12:43:19.338Z,29.00
2023-06-18T12:45:47.429Z,29.20
2023-06-18T12:48:16.374Z,29.20
2023-06-18T12:50:48.065Z,29.00
2023-06-18T12:53:17.800Z,29.00
2023-06-18T12:55:46.372Z,28.70
2023-06-18T12:58:21.204Z,28.40
2023-06-18T13:00:48.571Z,28.30
2023-06-18T13:03:15.881Z,28.50
2023-06-18T13:05:43.495Z,28.80
2023-06-18T13:08:17.758Z,29.20
2023-06-18T13:10:48.842Z,29.70
2023-06-18T13:13:16.479Z,29.80
2023-06-18T13:15:43.506Z,29.30
2023-06-18T13:18:11.866Z,28.90
2023-06-18T13:20:38.665Z,28.60
2023-06-18T13:23:06.024Z,28.40
2023-06-18T13:25:33.155Z,28.20
2023-06-18T13:28:01.320Z,28.40
2023-06-18T13:30:29.058Z,28.50
2023-06-18T13:32:55.881Z,28.90
2023-06-18T13:35:22.850Z,29.30
2023-06-18T13:37:50.040Z,29.50
2023-06-18T13:40:17.136Z,29.90
2023-06-18T13:42:44.052Z,30.00
2023-06-18T13:45:11.545Z,30.00
2023-06-18T13:47:38.475Z,30.20
2023-06-18T13:50:11.578Z,30.40
2023-06-18T13:52:38.306Z,29.90
2023-06-18T13:55:05.424Z,29.70
2023-06-18T13:57:32.234Z,29.40
2023-06-18T13:59:58.973Z,29.20
2023-06-18T14:02:25.790Z,29.00
2023-06-18T14:04:52.699Z,28.90
2023-06-18T14:07:19.518Z,28.60
2023-06-18T14:09:47.030Z,27.90
2023-06-18T14:12:13.934Z,27.50
2023-06-18T14:14:40.682Z,27.00
2023-06-18T14:17:07.576Z,26.70
2023-06-18T14:19:34.325Z,26.30
2023-06-18T14:22:01.033Z,26.30
2023-06-18T14:24:27.773Z,26.20
2023-06-18T14:26:54.577Z,26.30
2023-06-18T14:29:21.290Z,26.40
2023-06-18T14:31:47.974Z,26.30
2023-06-18T14:34:15.105Z,26.70
2023-06-18T14:36:42.304Z,27.40
2023-06-18T14:39:09.156Z,28.20
2023-06-18T14:41:36.064Z,28.50
2023-06-18T14:44:02.889Z,28.70
2023-06-18T14:46:29.649Z,29.00
2023-06-18T14:48:56.417Z,29.30
2023-06-18T14:51:23.233Z,29.60
2023-06-18T14:53:49.965Z,29.70
2023-06-18T14:56:16.749Z,29.30
2023-06-18T14:58:43.996Z,28.90
2023-06-18T15:01:10.749Z,28.60
2023-06-18T15:03:37.674Z,28.40
2023-06-18T15:06:04.686Z,28.40
2023-06-18T15:08:31.387Z,28.50
2023-06-18T15:10:58.108Z,28.70
2023-06-18T15:13:24.847Z,29.20
2023-06-18T15:15:51.689Z,29.50
2023-06-18T15:18:18.673Z,29.60
2023-06-18T15:20:45.551Z,29.80
2023-06-18T15:23:12.258Z,30.00
2023-06-18T15:25:38.972Z,29.90
2023-06-18T15:28:05.673Z,30.00
2023-06-18T15:30:32.506Z,29.90
2023-06-18T15:33:01.221Z,29.30
2023-06-18T15:35:28.296Z,29.50
2023-06-18T15:37:55.134Z,29.90
2023-06-18T15:40:25.017Z,30.00
2023-06-18T15:42:51.797Z,29.90
2023-06-18T15:45:18.589Z,29.80
2023-06-18T15:47:45.441Z,29.90
2023-06-18T15:50:12.238Z,30.20
2023-06-18T15:52:42.684Z,30.40
2023-06-18T15:55:12.551Z,29.80
2023-06-18T15:57:45.450Z,29.50
2023-06-18T16:00:13.023Z,29.70
2023-06-18T16:02:39.799Z,29.80
2023-06-18T16:05:09.745Z,30.10
2023-06-18T16:07:37.772Z,30.40
2023-06-18T16:10:05.016Z,30.40
2023-06-18T16:12:31.815Z,30.20
2023-06-18T16:14:58.699Z,30.10
2023-06-18T16:17:25.465Z,30.00
2023-06-18T16:19:52.206Z,30.00
2023-06-18T16:22:18.960Z,30.00
2023-06-18T16:24:46.069Z,30.00
2023-06-18T16:27:12.907Z,30.00
2023-06-18T16:29:39.557Z,30.00
2023-06-18T16:32:06.598Z,30.10
2023-06-18T16:34:33.384Z,30.00
2023-06-18T16:37:00.107Z,29.90
2023-06-18T16:39:26.932Z,29.90
2023-06-18T16:41:53.705Z,29.80
2023-06-18T16:44:20.449Z,29.60
2023-06-18T16:46:47.296Z,29.70
2023-06-18T16:49:14.275Z,29.70
2023-06-18T16:51:41.547Z,29.70
2023-06-18T16:54:08.439Z,29.80
2023-06-18T16:56:35.556Z,29.80
2023-06-18T16:59:02.276Z,29.50
2023-06-18T17:01:29.071Z,29.30
2023-06-18T17:03:55.918Z,29.20
2023-06-18T17:06:23.581Z,28.80
2023-06-18T17:08:52.096Z,28.50
2023-06-18T17:11:19.736Z,28.40
2023-06-18T17:13:46.577Z,28.20
2023-06-18T17:16:13.576Z,28.10
2023-06-18T17:18:40.326Z,28.00
2023-06-18T17:21:07.109Z,27.80
2023-06-18T17:23:33.895Z,27.80
2023-06-18T17:26:00.692Z,27.60
2023-06-18T17:28:27.537Z,27.50
2023-06-18T17:30:54.407Z,27.50
2023-06-18T17:33:21.166Z,27.50
2023-06-18T17:35:47.955Z,27.60
2023-06-18T17:38:14.738Z,27.60
2023-06-18T17:40:41.581Z,27.70
2023-06-18T17:43:08.419Z,27.70
2023-06-18T17:45:35.113Z,27.70
2023-06-18T17:48:02.069Z,27.60
2023-06-18T17:50:29.236Z,27.50
2023-06-18T17:52:56.181Z,27.30
2023-06-18T17:55:23.331Z,27.20
2023-06-18T17:57:50.344Z,27.00
2023-06-18T18:00:17.531Z,27.00
2023-06-18T18:02:44.642Z,26.90
2023-06-18T18:05:11.519Z,26.80
2023-06-18T18:07:38.272Z,26.70
2023-06-18T18:10:05.663Z,26.60
2023-06-18T18:12:32.419Z,26.50
2023-06-18T18:14:59.213Z,26.40
2023-06-18T18:17:25.988Z,26.30
2023-06-18T18:19:52.773Z,26.30
2023-06-18T18:22:19.525Z,26.20
2023-06-18T18:24:46.344Z,26.00
2023-06-18T18:27:13.122Z,25.90
2023-06-18T18:29:39.972Z,25.80
2023-06-18T18:32:07.218Z,25.70
2023-06-18T18:34:34.053Z,25.60
2023-06-18T18:37:00.813Z,25.60
2023-06-18T18:39:27.623Z,25.60
2023-06-18T18:41:54.331Z,25.50
2023-06-18T18:44:21.052Z,25.50
2023-06-18T18:46:47.842Z,25.40
2023-06-18T18:49:14.623Z,25.30
2023-06-18T18:51:41.349Z,25.20
2023-06-18T18:54:08.071Z,25.20
2023-06-18T18:56:37.102Z,25.10
2023-06-18T18:59:04.311Z,24.90
2023-06-18T19:01:31.227Z,24.80
2023-06-18T19:03:57.960Z,24.70
2023-06-18T19:06:24.766Z,24.70
2023-06-18T19:08:51.842Z,24.60
2023-06-18T19:11:18.541Z,24.50
2023-06-18T19:13:45.310Z,24.40
2023-06-18T19:16:12.097Z,24.40
2023-06-18T19:18:38.848Z,24.30
2023-06-18T19:21:05.926Z,24.20
2023-06-18T19:23:32.739Z,24.10
2023-06-18T19:25:59.517Z,24.10
2023-06-18T19:28:26.236Z,24.00
2023-06-18T19:30:53.030Z,23.90
2023-06-18T19:33:19.753Z,23.90
2023-06-18T19:35:46.503Z,23.80
2023-06-18T19:38:13.529Z,23.70
2023-06-18T19:40:40.348Z,23.60
2023-06-18T19:43:07.060Z,23.60
2023-06-18T19:45:33.908Z,23.50
2023-06-18T19:48:00.728Z,23.40
2023-06-18T19:50:27.534Z,23.40
2023-06-18T19:52:54.354Z,23.30
2023-06-18T19:55:21.201Z,23.20
2023-06-18T19:57:47.983Z,23.20
2023-06-18T20:00:15.182Z,23.10
2023-06-18T20:02:45.112Z,23.10
2023-06-18T20:05:12.573Z,23.00
2023-06-18T20:07:39.345Z,22.90
2023-06-18T20:10:06.545Z,22.90
2023-06-18T20:12:33.397Z,22.80
2023-06-18T20:15:00.195Z,22.80
2023-06-18T20:17:27.129Z,22.70
2023-06-18T20:19:54.298Z,22.70
2023-06-18T20:22:21.104Z,22.60
2023-06-18T20:24:47.839Z,22.60
2023-06-18T20:27:14.589Z,22.50
2023-06-18T20:29:41.382Z,22.50
2023-06-18T20:32:08.270Z,22.40
2023-06-18T20:34:34.983Z,22.40
2023-06-18T20:37:01.770Z,22.40
2023-06-18T20:39:28.528Z,22.30
2023-06-18T20:41:56.939Z,22.20
2023-06-18T20:44:23.714Z,22.20
2023-06-18T20:46:50.413Z,22.20
2023-06-18T20:49:18.728Z,22.10
2023-06-18T20:51:47.625Z,22.10
2023-06-18T20:54:14.393Z,22.00
2023-06-18T20:56:41.072Z,22.00
2023-06-18T20:59:07.884Z,21.90
2023-06-18T21:01:34.664Z,21.80
2023-06-18T21:04:01.674Z,21.80
2023-06-18T21:06:28.522Z,21.80
2023-06-18T21:08:55.289Z,21.80
2023-06-18T21:11:23.538Z,21.80
2023-06-18T21:13:50.356Z,21.70
2023-06-18T21:16:17.135Z,21.70
2023-06-18T21:18:44.039Z,21.60
2023-06-18T21:21:10.970Z,21.60
2023-06-18T21:23:37.756Z,21.60
2023-06-18T21:26:04.588Z,21.60
2023-06-18T21:28:32.414Z,21.50
2023-06-18T21:30:59.165Z,21.50
2023-06-18T21:33:25.875Z,21.40
2023-06-18T21:35:52.615Z,21.40
2023-06-18T21:38:19.389Z,21.30
2023-06-18T21:40:46.134Z,21.30
2023-06-18T21:43:12.916Z,21.30
2023-06-18T21:45:39.629Z,21.20
2023-06-18T21:48:06.442Z,21.20
2023-06-18T21:50:33.688Z,21.10
2023-06-18T21:53:00.401Z,21.10
2023-06-18T21:55:27.189Z,21.10
2023-06-18T21:57:54.317Z,21.00
2023-06-18T22:00:21.413Z,20.90
2023-06-18T22:02:48.351Z,20.90
2023-06-18T22:05:15.219Z,20.90
2023-06-18T22:07:42.276Z,20.90
2023-06-18T22:10:10.200Z,20.90
2023-06-18T22:12:37.015Z,20.80
2023-06-18T22:15:04.215Z,20.80
2023-06-18T22:17:31.011Z,20.80
2023-06-18T22:20:00.694Z,20.80
2023-06-18T22:22:29.451Z,20.70
2023-06-18T22:24:58.888Z,20.70
2023-06-18T22:27:27.147Z,20.60
2023-06-18T22:29:54.287Z,20.60
2023-06-18T22:32:21.121Z,20.60
2023-06-18T22:34:47.942Z,20.50
2023-06-18T22:37:14.742Z,20.50
2023-06-18T22:39:41.552Z,20.50
2023-06-18T22:42:08.670Z,20.40
2023-06-18T22:44:35.637Z,20.40
2023-06-18T22:47:02.474Z,20.40
2023-06-18T22:49:29.266Z,20.40
2023-06-18T22:51:58.804Z,20.30
2023-06-18T22:54:26.875Z,20.20
2023-06-18T22:56:53.955Z,20.20
2023-06-18T22:59:23.156Z,20.20
2023-06-18T23:01:49.951Z,20.10
2023-06-18T23:04:16.735Z,20.10
2023-06-18T23:06:43.506Z,20.00
2023-06-18T23:09:10.375Z,20.00
2023-06-18T23:11:40.083Z,20.00
2023-06-18T23:14:07.091Z,19.90
2023-06-18T23:16:33.846Z,20.00
2023-06-18T23:19:00.646Z,20.00
2023-06-18T23:21:45.596Z,19.90
2023-06-18T23:24:13.470Z,19.90
2023-06-18T23:26:40.492Z,19.90
2023-06-18T23:29:08.144Z,19.90
2023-06-18T23:31:34.968Z,19.90
2023-06-18T23:34:01.763Z,19.80
2023-06-18T23:36:28.540Z,19.80
2023-06-18T23:38:55.328Z,19.70
2023-06-18T23:41:22.047Z,19.70
2023-06-18T23:43:48.800Z,19.70
2023-06-18T23:46:15.698Z,19.70
2023-06-18T23:48:42.459Z,19.60
2023-06-18T23:51:09.259Z,19.60
2023-06-18T23:53:36.009Z,19.50
2023-06-18T23:56:02.783Z,19.50
2023-06-18T23:58:29.533Z,19.40
